Time;durP1;ratioP1;P1;durP2;ratioP2;P2;SDS_P1;SDS_P2;PMS_P1;PMS_P2;Temp;Humidity;BMP_temperature;BMP_pressure;BME280_temperature;BME280_humidity;BME280_pressure;Samples;Min_cycle;Max_cycle;Signal;HPM_P1;HPM_P2
2022/12/19 00:00:25;;;;;;;31.07;14.97;;;;;;;;;;5048944;28;20210;-34
2022/12/19 00:02:52;;;;;;;30.00;14.27;;;;;;;;;;5052473;28;20299;-39
2022/12/19 00:05:21;;;;;;;35.03;15.37;;;;;;;;;;5052655;28;20210;-29
2022/12/19 00:07:48;;;;;;;25.33;12.30;;;;;;;;;;5041258;28;20210;-36
2022/12/19 00:10:17;;;;;;;28.67;13.63;;;;;;;;;;5051599;28;20198;-35
2022/12/19 00:12:44;;;;;;;29.70;14.83;;;;;;;;;;5043050;28;20225;-32
2022/12/19 00:15:11;;;;;;;32.33;13.80;;;;;;;;;;5050015;28;20198;-32
2022/12/19 00:17:38;;;;;;;28.67;14.23;;;;;;;;;;5052174;28;20225;-34
2022/12/19 00:20:06;;;;;;;30.00;13.90;;;;;;;;;;5050604;28;20617;-31
2022/12/19 00:22:33;;;;;;;28.83;13.00;;;;;;;;;;5046035;28;20225;-33
2022/12/19 00:25:00;;;;;;;27.00;13.33;;;;;;;;;;5048483;28;20213;-32
2022/12/19 00:27:28;;;;;;;34.43;15.00;;;;;;;;;;5048601;28;20213;-30
2022/12/19 00:29:56;;;;;;;25.00;13.13;;;;;;;;;;5051407;28;20210;-34
2022/12/19 00:32:23;;;;;;;31.47;15.37;;;;;;;;;;5051772;28;20233;-37
2022/12/19 00:34:50;;;;;;;26.10;12.83;;;;;;;;;;5052380;28;20217;-31
2022/12/19 00:37:17;;;;;;;23.53;11.80;;;;;;;;;;5042334;28;20208;-32
2022/12/19 00:39:44;;;;;;;26.30;13.30;;;;;;;;;;5043173;28;20289;-30
2022/12/19 00:42:11;;;;;;;31.37;13.93;;;;;;;;;;5045429;28;20309;-33
2022/12/19 00:44:39;;;;;;;25.87;13.90;;;;;;;;;;5047917;28;20214;-33
2022/12/19 00:47:07;;;;;;;26.93;13.83;;;;;;;;;;5052053;28;20684;-30
2022/12/19 00:49:34;;;;;;;24.53;12.57;;;;;;;;;;5052065;28;20210;-34
2022/12/19 00:52:01;;;;;;;26.67;12.73;;;;;;;;;;5042182;28;20240;-34
2022/12/19 00:54:28;;;;;;;27.60;13.43;;;;;;;;;;5052063;28;20216;-31
2022/12/19 00:56:55;;;;;;;31.60;14.63;;;;;;;;;;5042611;28;20579;-29
2022/12/19 00:59:22;;;;;;;31.67;13.77;;;;;;;;;;5046086;28;20208;-30
2022/12/19 01:01:50;;;;;;;35.27;14.50;;;;;;;;;;5051357;28;20222;-32
2022/12/19 01:04:18;;;;;;;31.00;14.03;;;;;;;;;;5046115;28;20205;-30
2022/12/19 01:06:45;;;;;;;30.10;13.27;;;;;;;;;;5042751;28;20205;-33
2022/12/19 01:09:12;;;;;;;32.10;13.83;;;;;;;;;;5050051;28;20194;-30
2022/12/19 01:14:24;;;;;;;27.43;13.97;;;;;;;;;;5047605;28;20221;-34
2022/12/19 01:16:52;;;;;;;24.90;11.50;;;;;;;;;;5050792;28;20206;-28
2022/12/19 01:19:20;;;;;;;26.63;11.23;;;;;;;;;;5040306;28;20298;-31
2022/12/19 01:21:47;;;;;;;27.80;12.80;;;;;;;;;;5046368;28;20214;-34
2022/12/19 01:24:14;;;;;;;26.63;13.57;;;;;;;;;;5050439;28;20208;-31
2022/12/19 01:26:42;;;;;;;28.90;13.33;;;;;;;;;;5042139;28;20199;-35
2022/12/19 01:29:09;;;;;;;24.70;12.50;;;;;;;;;;5046057;28;20198;-34
2022/12/19 01:31:36;;;;;;;27.10;13.40;;;;;;;;;;5050132;28;20228;-35
2022/12/19 01:34:04;;;;;;;27.50;13.60;;;;;;;;;;5047555;28;20225;-32
2022/12/19 01:36:33;;;;;;;30.10;12.63;;;;;;;;;;5046603;28;20210;-31
2022/12/19 01:39:00;;;;;;;27.37;13.67;;;;;;;;;;5049941;28;20198;-35
2022/12/19 01:41:27;;;;;;;25.83;13.83;;;;;;;;;;5042183;28;20262;-33
2022/12/19 01:43:56;;;;;;;27.67;12.30;;;;;;;;;;5039856;28;20204;-30
2022/12/19 01:46:26;;;;;;;24.13;11.80;;;;;;;;;;5050079;28;20200;-34
2022/12/19 01:48:53;;;;;;;30.20;12.10;;;;;;;;;;5045820;28;20663;-36
2022/12/19 01:51:23;;;;;;;24.97;11.30;;;;;;;;;;5036049;28;20229;-31
2022/12/19 01:53:51;;;;;;;24.80;11.47;;;;;;;;;;5049909;28;20603;-34
2022/12/19 01:56:20;;;;;;;25.93;12.00;;;;;;;;;;5045407;28;20211;-31
2022/12/19 01:58:48;;;;;;;30.33;13.50;;;;;;;;;;5039125;28;20206;-29
2022/12/19 02:01:19;;;;;;;24.67;13.17;;;;;;;;;;5045848;28;20934;-30
2022/12/19 02:03:46;;;;;;;32.23;14.37;;;;;;;;;;5041670;28;20201;-30
2022/12/19 02:06:17;;;;;;;30.37;13.47;;;;;;;;;;5050189;28;20214;-32
2022/12/19 02:08:47;;;;;;;27.27;13.03;;;;;;;;;;5041708;28;20673;-32
2022/12/19 02:11:14;;;;;;;28.57;11.93;;;;;;;;;;5036823;28;20467;-31
2022/12/19 02:13:41;;;;;;;23.03;12.43;;;;;;;;;;5043252;28;20213;-33
2022/12/19 02:16:16;;;;;;;30.10;14.23;;;;;;;;;;5051449;28;20648;-31
2022/12/19 02:18:50;;;;;;;25.00;12.10;;;;;;;;;;5051644;28;20205;-28
2022/12/19 02:21:25;;;;;;;28.07;12.93;;;;;;;;;;5039164;28;20258;-28
2022/12/19 02:24:22;;;;;;;30.90;14.87;;;;;;;;;;5044485;28;20197;-32
2022/12/19 02:27:02;;;;;;;25.37;10.87;;;;;;;;;;5044892;28;20199;-31
2022/12/19 02:29:43;;;;;;;26.80;12.07;;;;;;;;;;5047823;28;20205;-34
2022/12/19 02:32:16;;;;;;;29.77;12.90;;;;;;;;;;5041289;28;20232;-34
2022/12/19 02:34:44;;;;;;;27.87;12.63;;;;;;;;;;5045669;28;20298;-30
2022/12/19 02:37:13;;;;;;;27.73;14.20;;;;;;;;;;5030296;28;20229;-32
2022/12/19 02:39:43;;;;;;;27.93;13.70;;;;;;;;;;5049290;28;20229;-32
2022/12/19 02:42:12;;;;;;;21.07;8.90;;;;;;;;;;5044810;28;20240;-32
2022/12/19 02:44:41;;;;;;;25.37;12.97;;;;;;;;;;5049273;28;20213;-32
2022/12/19 02:47:09;;;;;;;30.90;15.37;;;;;;;;;;5049817;28;20264;-33
2022/12/19 02:49:38;;;;;;;25.57;11.83;;;;;;;;;;5049067;28;20221;-28
2022/12/19 02:52:12;;;;;;;32.13;13.13;;;;;;;;;;5046358;28;20222;-28
2022/12/19 02:54:39;;;;;;;28.70;14.13;;;;;;;;;;5045453;28;20233;-32
2022/12/19 02:57:12;;;;;;;33.47;14.17;;;;;;;;;;5037176;28;20214;-33
2022/12/19 02:59:47;;;;;;;26.93;12.77;;;;;;;;;;5044887;28;20202;-33
2022/12/19 03:02:20;;;;;;;29.50;13.93;;;;;;;;;;5049870;28;20603;-31
2022/12/19 03:04:53;;;;;;;32.37;13.83;;;;;;;;;;5041103;28;20202;-31
2022/12/19 03:07:24;;;;;;;32.17;14.43;;;;;;;;;;5043767;28;20202;-32
2022/12/19 03:09:53;;;;;;;27.13;12.53;;;;;;;;;;5045219;28;20198;-32
2022/12/19 03:12:24;;;;;;;27.80;13.17;;;;;;;;;;5040506;28;20225;-33
2022/12/19 03:14:52;;;;;;;30.63;12.37;;;;;;;;;;5046187;28;20205;-35
2022/12/19 03:17:19;;;;;;;26.63;12.57;;;;;;;;;;5051821;28;20213;-31
2022/12/19 03:19:47;;;;;;;25.90;12.67;;;;;;;;;;5046019;28;20214;-33
2022/12/19 03:22:15;;;;;;;27.37;13.57;;;;;;;;;;5043138;28;20214;-31
2022/12/19 03:24:42;;;;;;;30.40;12.73;;;;;;;;;;5052900;28;20194;-29
2022/12/19 03:27:11;;;;;;;32.17;13.73;;;;;;;;;;5044080;28;20320;-35
2022/12/19 03:29:40;;;;;;;36.87;14.73;;;;;;;;;;5052133;28;20684;-28
2022/12/19 03:32:08;;;;;;;31.17;14.67;;;;;;;;;;5052537;28;20600;-32
2022/12/19 03:34:37;;;;;;;25.87;12.13;;;;;;;;;;5045653;28;20226;-31
2022/12/19 03:37:06;;;;;;;25.17;11.00;;;;;;;;;;5046795;28;20221;-31
2022/12/19 03:39:34;;;;;;;31.57;14.57;;;;;;;;;;5052140;28;20214;-28
2022/12/19 03:44:50;;;;;;;31.67;14.13;;;;;;;;;;5048455;28;20494;-32
2022/12/19 03:47:21;;;;;;;30.97;14.20;;;;;;;;;;5052631;28;20255;-30
2022/12/19 03:49:48;;;;;;;28.73;12.30;;;;;;;;;;5038339;28;20230;-32
2022/12/19 03:52:19;;;;;;;30.40;13.90;;;;;;;;;;5046698;28;20232;-35
2022/12/19 03:54:50;;;;;;;29.67;14.63;;;;;;;;;;5052101;28;20225;-32
2022/12/19 03:57:20;;;;;;;29.10;13.17;;;;;;;;;;5041661;28;20503;-34
2022/12/19 03:59:52;;;;;;;30.10;12.73;;;;;;;;;;5044089;28;20210;-32
2022/12/19 04:02:20;;;;;;;30.27;13.53;;;;;;;;;;5052341;28;20287;-30
2022/12/19 04:04:48;;;;;;;37.23;16.17;;;;;;;;;;5039175;28;20206;-32
2022/12/19 04:07:16;;;;;;;29.57;14.60;;;;;;;;;;5046978;28;20205;-32
2022/12/19 04:09:44;;;;;;;30.83;14.83;;;;;;;;;;5043376;28;20202;-32
2022/12/19 04:12:15;;;;;;;30.80;13.87;;;;;;;;;;5043027;28;20380;-31
2022/12/19 04:14:42;;;;;;;33.13;14.80;;;;;;;;;;5047442;28;20332;-32
2022/12/19 04:17:14;;;;;;;33.27;14.50;;;;;;;;;;5050385;28;20198;-37
2022/12/19 04:22:11;;;;;;;31.47;15.17;;;;;;;;;;5063830;28;20305;-32
2022/12/19 04:24:41;;;;;;;28.80;13.23;;;;;;;;;;5074019;28;20839;-31
2022/12/19 04:27:09;;;;;;;36.73;15.57;;;;;;;;;;5066856;28;20857;-29
2022/12/19 04:29:38;;;;;;;29.17;13.67;;;;;;;;;;5073378;28;20205;-31
2022/12/19 04:32:06;;;;;;;38.90;16.83;;;;;;;;;;5073847;28;20300;-31
2022/12/19 04:34:33;;;;;;;38.00;15.57;;;;;;;;;;5070105;28;20229;-34
2022/12/19 04:37:02;;;;;;;41.37;16.37;;;;;;;;;;5066620;28;20216;-31
2022/12/19 04:39:29;;;;;;;30.80;14.17;;;;;;;;;;5073692;28;20202;-32
2022/12/19 04:41:56;;;;;;;35.80;14.57;;;;;;;;;;5064000;28;20229;-34
2022/12/19 04:44:23;;;;;;;29.80;14.23;;;;;;;;;;5073245;28;20202;-31
2022/12/19 04:46:52;;;;;;;31.93;13.03;;;;;;;;;;5073118;28;20228;-32
2022/12/19 04:49:19;;;;;;;26.57;12.77;;;;;;;;;;5072456;28;20212;-33
2022/12/19 04:51:46;;;;;;;32.87;14.23;;;;;;;;;;5061403;28;20630;-31
2022/12/19 04:54:13;;;;;;;34.47;14.17;;;;;;;;;;5073277;28;20307;-30
2022/12/19 04:56:40;;;;;;;33.30;16.07;;;;;;;;;;5067275;28;20213;-33
2022/12/19 04:59:08;;;;;;;28.77;12.93;;;;;;;;;;5066728;28;20208;-31
2022/12/19 05:01:35;;;;;;;30.30;15.10;;;;;;;;;;5071185;28;20233;-33
2022/12/19 05:04:03;;;;;;;35.17;15.17;;;;;;;;;;5071207;28;20197;-33
2022/12/19 05:06:30;;;;;;;35.60;17.27;;;;;;;;;;5060605;28;20217;-33
2022/12/19 05:08:57;;;;;;;33.33;15.77;;;;;;;;;;5072845;28;20201;-35
2022/12/19 05:11:24;;;;;;;37.93;17.60;;;;;;;;;;5070081;28;20225;-33
2022/12/19 05:13:51;;;;;;;32.50;14.67;;;;;;;;;;5070850;28;20213;-34
2022/12/19 05:16:19;;;;;;;41.83;16.27;;;;;;;;;;5074044;28;20288;-32
2022/12/19 05:18:46;;;;;;;37.23;16.60;;;;;;;;;;5074129;28;20549;-31
2022/12/19 05:21:15;;;;;;;36.23;15.03;;;;;;;;;;5071732;28;20714;-33
2022/12/19 05:23:42;;;;;;;40.07;15.50;;;;;;;;;;5069242;28;20202;-30
2022/12/19 05:26:11;;;;;;;35.33;14.97;;;;;;;;;;5071852;28;20210;-31
2022/12/19 05:28:38;;;;;;;38.67;15.03;;;;;;;;;;5069713;28;20209;-32
2022/12/19 05:31:07;;;;;;;41.57;17.03;;;;;;;;;;5073904;28;20228;-34
2022/12/19 05:33:34;;;;;;;34.17;16.30;;;;;;;;;;5074287;28;20316;-32
2022/12/19 05:36:01;;;;;;;31.57;15.33;;;;;;;;;;5071904;28;20205;-32
2022/12/19 05:38:30;;;;;;;36.47;15.43;;;;;;;;;;5063747;28;20216;-34
2022/12/19 05:40:57;;;;;;;39.23;16.60;;;;;;;;;;5070221;28;20217;-30
2022/12/19 05:43:26;;;;;;;32.73;13.93;;;;;;;;;;5065149;28;20197;-31
2022/12/19 05:45:53;;;;;;;31.87;14.67;;;;;;;;;;5071008;28;20201;-32
2022/12/19 05:48:20;;;;;;;31.47;13.97;;;;;;;;;;5069924;28;20200;-31
2022/12/19 05:50:48;;;;;;;31.43;14.30;;;;;;;;;;5068741;28;22562;-36
2022/12/19 05:53:17;;;;;;;37.40;14.97;;;;;;;;;;5065351;28;20268;-29
2022/12/19 05:55:45;;;;;;;36.20;15.77;;;;;;;;;;5072339;28;20201;-32
2022/12/19 05:58:12;;;;;;;36.87;14.33;;;;;;;;;;5063366;28;20201;-31
2022/12/19 06:00:40;;;;;;;35.47;15.37;;;;;;;;;;5071079;28;20217;-32
2022/12/19 06:03:07;;;;;;;40.23;15.50;;;;;;;;;;5072187;28;20212;-31
2022/12/19 06:05:37;;;;;;;35.77;14.87;;;;;;;;;;5067666;28;20212;-33
2022/12/19 06:08:04;;;;;;;40.00;15.87;;;;;;;;;;5071472;28;20251;-32
2022/12/19 06:10:31;;;;;;;40.17;15.90;;;;;;;;;;5070181;28;20219;-32
2022/12/19 06:13:00;;;;;;;39.37;15.10;;;;;;;;;;5066652;28;20212;-32
2022/12/19 06:15:29;;;;;;;31.47;14.00;;;;;;;;;;5069333;28;20229;-31
2022/12/19 06:17:56;;;;;;;25.90;12.47;;;;;;;;;;5072605;28;20268;-30
2022/12/19 06:20:23;;;;;;;29.77;14.17;;;;;;;;;;5071605;28;20754;-31
2022/12/19 06:22:50;;;;;;;31.47;14.20;;;;;;;;;;5066601;28;20201;-31
2022/12/19 06:25:17;;;;;;;34.47;13.83;;;;;;;;;;5072071;28;20225;-32
2022/12/19 06:27:44;;;;;;;36.73;15.57;;;;;;;;;;5067090;28;20205;-30
2022/12/19 06:30:14;;;;;;;36.63;16.00;;;;;;;;;;5068008;28;20668;-29
2022/12/19 06:32:41;;;;;;;33.80;14.27;;;;;;;;;;5071183;28;20205;-33
2022/12/19 06:35:08;;;;;;;36.23;16.07;;;;;;;;;;5072394;28;20227;-35
2022/12/19 06:37:35;;;;;;;42.40;16.47;;;;;;;;;;5059425;28;20219;-36
2022/12/19 06:40:03;;;;;;;39.90;16.80;;;;;;;;;;5065576;28;20202;-32
2022/12/19 06:42:29;;;;;;;41.03;18.00;;;;;;;;;;5058761;28;20788;-29
2022/12/19 06:44:58;;;;;;;47.30;17.73;;;;;;;;;;5069967;28;20644;-29
2022/12/19 06:47:26;;;;;;;39.30;17.03;;;;;;;;;;5071743;28;20196;-31
2022/12/19 06:49:53;;;;;;;37.20;16.73;;;;;;;;;;5071387;28;20208;-31
2022/12/19 06:52:21;;;;;;;38.90;14.80;;;;;;;;;;5067626;28;20683;-32
2022/12/19 06:54:48;;;;;;;36.60;15.00;;;;;;;;;;5075337;28;20247;-30
2022/12/19 06:57:15;;;;;;;38.10;16.30;;;;;;;;;;5068789;28;20205;-33
2022/12/19 06:59:42;;;;;;;32.23;14.60;;;;;;;;;;5072451;28;20209;-30
2022/12/19 07:02:17;;;;;;;33.90;14.97;;;;;;;;;;5072949;28;20224;-32
2022/12/19 07:04:47;;;;;;;33.30;15.30;;;;;;;;;;5069678;28;20199;-36
2022/12/19 07:07:14;;;;;;;37.37;16.70;;;;;;;;;;5069443;28;20202;-31
2022/12/19 07:09:41;;;;;;;31.23;13.53;;;;;;;;;;5074741;28;20197;-31
2022/12/19 07:12:08;;;;;;;30.23;12.47;;;;;;;;;;5064976;28;20228;-31
2022/12/19 07:14:36;;;;;;;33.90;14.73;;;;;;;;;;5073776;28;20851;-30
2022/12/19 07:17:03;;;;;;;38.90;15.30;;;;;;;;;;5075501;28;20212;-32
2022/12/19 07:19:31;;;;;;;24.83;13.40;;;;;;;;;;5075644;28;20206;-35
2022/12/19 07:22:00;;;;;;;38.63;15.20;;;;;;;;;;5065690;28;20747;-33
2022/12/19 07:24:27;;;;;;;31.77;13.77;;;;;;;;;;5072526;28;20224;-33
2022/12/19 07:26:55;;;;;;;29.53;13.17;;;;;;;;;;5061695;28;20213;-32
2022/12/19 07:29:22;;;;;;;32.97;14.63;;;;;;;;;;5071001;28;20288;-32
2022/12/19 07:31:49;;;;;;;28.77;14.50;;;;;;;;;;5075196;28;20218;-31
2022/12/19 07:34:16;;;;;;;33.73;15.37;;;;;;;;;;5074958;28;20229;-31
2022/12/19 07:36:45;;;;;;;31.40;14.60;;;;;;;;;;5066489;28;20288;-34
2022/12/19 07:39:14;;;;;;;34.50;14.37;;;;;;;;;;5067300;28;20206;-35
2022/12/19 07:41:41;;;;;;;32.17;14.93;;;;;;;;;;5066004;28;20233;-31
2022/12/19 07:44:08;;;;;;;34.63;14.20;;;;;;;;;;5066589;28;20208;-31
2022/12/19 07:46:35;;;;;;;35.70;16.10;;;;;;;;;;5074889;28;20205;-34
2022/12/19 07:49:02;;;;;;;36.17;15.40;;;;;;;;;;5068584;28;20206;-31
2022/12/19 07:51:29;;;;;;;37.90;15.13;;;;;;;;;;5063458;28;20236;-31
2022/12/19 07:53:56;;;;;;;34.40;14.30;;;;;;;;;;5074834;28;20193;-32
2022/12/19 07:56:25;;;;;;;31.90;15.07;;;;;;;;;;5069428;28;20308;-35
2022/12/19 07:58:52;;;;;;;34.87;14.63;;;;;;;;;;5064453;28;20210;-34
2022/12/19 08:01:20;;;;;;;31.47;15.37;;;;;;;;;;5074595;28;20217;-34
2022/12/19 08:03:47;;;;;;;32.43;13.37;;;;;;;;;;5074694;28;20263;-32
2022/12/19 08:06:14;;;;;;;39.23;16.50;;;;;;;;;;5068716;28;20202;-29
2022/12/19 08:08:41;;;;;;;41.63;16.50;;;;;;;;;;5059697;28;20201;-31
2022/12/19 08:11:09;;;;;;;39.70;17.80;;;;;;;;;;5071897;28;20255;-33
2022/12/19 08:13:37;;;;;;;37.23;16.53;;;;;;;;;;5070168;28;20204;-33
2022/12/19 08:16:05;;;;;;;38.67;15.53;;;;;;;;;;5074211;28;20217;-30
2022/12/19 08:18:32;;;;;;;37.53;16.17;;;;;;;;;;5070947;28;20292;-31
2022/12/19 08:21:00;;;;;;;39.23;16.93;;;;;;;;;;5064097;28;20229;-30
2022/12/19 08:23:27;;;;;;;41.90;15.90;;;;;;;;;;5066402;28;20205;-30
2022/12/19 08:26:00;;;;;;;39.20;17.93;;;;;;;;;;5072374;28;20685;-38
2022/12/19 08:28:28;;;;;;;42.70;16.77;;;;;;;;;;5063862;28;20213;-30
2022/12/19 08:30:56;;;;;;;39.77;15.53;;;;;;;;;;5071858;28;20686;-32
2022/12/19 08:33:23;;;;;;;42.13;16.50;;;;;;;;;;5071270;28;20220;-36
2022/12/19 08:35:51;;;;;;;37.50;15.37;;;;;;;;;;5060037;28;20225;-31
2022/12/19 08:38:18;;;;;;;37.63;17.23;;;;;;;;;;5069992;28;20201;-36
2022/12/19 08:40:45;;;;;;;42.83;18.70;;;;;;;;;;5060128;28;20324;-32
2022/12/19 08:43:12;;;;;;;36.17;15.37;;;;;;;;;;5060001;28;20547;-29
2022/12/19 08:45:39;;;;;;;34.73;16.93;;;;;;;;;;5066003;28;20496;-31
2022/12/19 08:48:08;;;;;;;40.93;17.13;;;;;;;;;;5066880;28;20197;-33
2022/12/19 08:50:35;;;;;;;46.77;18.40;;;;;;;;;;5061253;28;20221;-33
2022/12/19 08:53:02;;;;;;;39.77;16.50;;;;;;;;;;5066054;28;20212;-34
2022/12/19 08:55:30;;;;;;;36.70;15.77;;;;;;;;;;5062528;28;20221;-31
2022/12/19 08:57:57;;;;;;;38.63;16.33;;;;;;;;;;5062006;28;20210;-33
2022/12/19 09:00:24;;;;;;;37.53;16.10;;;;;;;;;;5058503;28;20204;-33
2022/12/19 09:02:51;;;;;;;36.33;16.43;;;;;;;;;;5061704;28;20695;-34
2022/12/19 09:05:20;;;;;;;39.00;17.10;;;;;;;;;;5060541;28;20496;-35
2022/12/19 09:07:47;;;;;;;40.97;17.10;;;;;;;;;;5060949;28;20601;-33
2022/12/19 09:10:17;;;;;;;41.13;17.63;;;;;;;;;;5060237;28;20205;-31
2022/12/19 09:12:45;;;;;;;41.37;16.87;;;;;;;;;;5058316;28;20209;-30
2022/12/19 09:15:12;;;;;;;44.67;18.63;;;;;;;;;;5061896;28;20683;-34
2022/12/19 09:17:40;;;;;;;39.20;18.03;;;;;;;;;;5066891;28;20205;-31
2022/12/19 09:20:07;;;;;;;35.90;17.33;;;;;;;;;;5063837;28;20287;-38
2022/12/19 09:22:36;;;;;;;41.00;18.03;;;;;;;;;;5069991;28;20235;-31
2022/12/19 09:25:03;;;;;;;40.70;16.70;;;;;;;;;;5070226;28;20209;-33
2022/12/19 09:27:30;;;;;;;37.90;16.30;;;;;;;;;;5064349;28;20562;-35
2022/12/19 09:29:57;;;;;;;38.57;18.03;;;;;;;;;;5069537;28;20207;-32
2022/12/19 09:32:24;;;;;;;43.33;17.40;;;;;;;;;;5069406;28;20312;-31
2022/12/19 09:34:52;;;;;;;43.33;18.57;;;;;;;;;;5070505;28;20217;-30
2022/12/19 09:37:19;;;;;;;41.43;17.63;;;;;;;;;;5062379;28;20269;-32
2022/12/19 09:39:47;;;;;;;39.77;18.23;;;;;;;;;;5068139;28;20297;-34
2022/12/19 09:42:35;;;;;;;41.53;18.07;;;;;;;;;;5056853;28;20233;-32
2022/12/19 09:45:11;;;;;;;42.50;18.13;;;;;;;;;;5056319;28;20656;-33
2022/12/19 09:47:39;;;;;;;43.83;18.53;;;;;;;;;;5071884;28;20263;-35
2022/12/19 09:50:18;;;;;;;33.43;16.20;;;;;;;;;;5071986;28;20201;-29
2022/12/19 09:52:50;;;;;;;40.67;17.70;;;;;;;;;;5066428;28;20206;-32
2022/12/19 09:55:21;;;;;;;43.47;19.20;;;;;;;;;;5059401;28;20226;-30
2022/12/19 09:57:51;;;;;;;41.67;19.10;;;;;;;;;;5063569;28;20254;-31
2022/12/19 10:00:20;;;;;;;37.90;17.93;;;;;;;;;;5069526;28;20212;-37
2022/12/19 10:02:49;;;;;;;36.43;17.10;;;;;;;;;;5070321;28;20581;-34
2022/12/19 10:05:20;;;;;;;38.33;18.53;;;;;;;;;;5065025;28;20201;-32
2022/12/19 10:07:47;;;;;;;38.87;17.80;;;;;;;;;;5062114;28;20201;-34
2022/12/19 10:10:15;;;;;;;40.80;17.20;;;;;;;;;;5065261;28;20213;-31
2022/12/19 10:12:57;;;;;;;39.90;18.40;;;;;;;;;;5058262;28;20643;-30
2022/12/19 10:15:30;;;;;;;32.10;17.27;;;;;;;;;;5061331;28;20228;-30
2022/12/19 10:20:30;;;;;;;38.30;17.40;;;;;;;;;;5063718;28;20661;-27
2022/12/19 10:23:05;;;;;;;42.60;18.50;;;;;;;;;;5057988;28;20253;-30
2022/12/19 10:25:37;;;;;;;37.63;17.83;;;;;;;;;;5061980;28;20677;-29
2022/12/19 10:28:12;;;;;;;42.17;18.87;;;;;;;;;;5060412;28;20215;-28
2022/12/19 10:30:43;;;;;;;41.90;18.40;;;;;;;;;;5061520;28;20227;-28
2022/12/19 10:33:15;;;;;;;40.17;18.60;;;;;;;;;;5054150;28;20233;-27
2022/12/19 10:35:43;;;;;;;43.43;17.87;;;;;;;;;;5056720;28;20618;-27
2022/12/19 10:38:19;;;;;;;40.93;18.23;;;;;;;;;;5060711;28;20555;-30
2022/12/19 10:40:49;;;;;;;41.30;18.07;;;;;;;;;;5055098;28;20221;-30
2022/12/19 10:43:21;;;;;;;34.83;17.03;;;;;;;;;;5064662;28;20301;-30
2022/12/19 10:45:59;;;;;;;39.30;18.03;;;;;;;;;;5053596;28;20190;-27
2022/12/19 10:48:26;;;;;;;36.43;15.57;;;;;;;;;;5053864;28;20208;-28
2022/12/19 10:50:53;;;;;;;35.60;16.93;;;;;;;;;;5051898;28;20225;-27
2022/12/19 10:53:27;;;;;;;33.00;16.47;;;;;;;;;;5057231;28;20206;-29
2022/12/19 10:55:55;;;;;;;37.10;17.63;;;;;;;;;;5058961;28;20206;-31
2022/12/19 10:58:24;;;;;;;42.30;18.57;;;;;;;;;;5065641;28;20229;-25
2022/12/19 11:01:03;;;;;;;38.80;18.30;;;;;;;;;;5053275;28;20369;-28
2022/12/19 11:03:30;;;;;;;38.43;18.50;;;;;;;;;;5054789;28;20198;-31
2022/12/19 11:05:58;;;;;;;41.97;19.20;;;;;;;;;;5051908;28;20535;-27
2022/12/19 11:08:26;;;;;;;37.97;18.37;;;;;;;;;;5060178;28;20217;-26
2022/12/19 11:10:54;;;;;;;44.30;20.40;;;;;;;;;;5063802;28;20316;-27
2022/12/19 11:13:23;;;;;;;42.47;20.57;;;;;;;;;;5064278;28;20205;-27
2022/12/19 11:15:51;;;;;;;46.47;20.73;;;;;;;;;;5053541;28;20230;-29
2022/12/19 11:18:19;;;;;;;48.03;21.47;;;;;;;;;;5053820;28;20212;-27
2022/12/19 11:20:57;;;;;;;49.67;22.23;;;;;;;;;;5053577;28;20232;-25
2022/12/19 11:23:25;;;;;;;44.83;21.50;;;;;;;;;;5065363;28;20630;-25
2022/12/19 11:25:57;;;;;;;40.50;21.67;;;;;;;;;;5053829;28;20213;-26
2022/12/19 11:28:25;;;;;;;49.20;20.70;;;;;;;;;;5065690;28;20209;-27
2022/12/19 11:30:56;;;;;;;46.33;22.17;;;;;;;;;;5068447;28;20221;-29
2022/12/19 11:33:25;;;;;;;41.70;20.27;;;;;;;;;;5076069;28;20248;-28
2022/12/19 11:35:53;;;;;;;47.87;21.47;;;;;;;;;;5071299;28;20278;-26
2022/12/19 11:38:26;;;;;;;48.27;23.10;;;;;;;;;;5071752;28;20644;-28
2022/12/19 11:40:55;;;;;;;48.73;23.10;;;;;;;;;;5053121;28;20717;-28
2022/12/19 11:43:27;;;;;;;49.27;22.90;;;;;;;;;;5065151;28;20215;-29
2022/12/19 11:45:58;;;;;;;49.90;21.77;;;;;;;;;;5054554;28;20188;-28
2022/12/19 11:48:34;;;;;;;46.17;21.80;;;;;;;;;;5054828;28;20214;-28
2022/12/19 11:51:05;;;;;;;48.83;22.73;;;;;;;;;;5053209;28;20226;-28
2022/12/19 11:53:36;;;;;;;52.80;22.63;;;;;;;;;;5057752;28;20202;-25
2022/12/19 11:56:06;;;;;;;50.70;22.83;;;;;;;;;;5072353;28;20242;-27
2022/12/19 11:58:33;;;;;;;46.53;20.80;;;;;;;;;;5061621;28;20201;-29
2022/12/19 12:01:05;;;;;;;47.83;21.63;;;;;;;;;;5068371;28;20263;-29
2022/12/19 12:03:44;;;;;;;46.00;22.30;;;;;;;;;;5054358;28;20214;-26
2022/12/19 12:06:13;;;;;;;51.70;23.47;;;;;;;;;;5054448;28;20707;-26
2022/12/19 12:08:53;;;;;;;58.03;23.30;;;;;;;;;;5060602;28;20201;-28
2022/12/19 12:11:24;;;;;;;47.50;19.77;;;;;;;;;;5057384;28;20221;-26
2022/12/19 12:14:07;;;;;;;43.83;21.83;;;;;;;;;;5066647;28;20781;-29
2022/12/19 12:16:39;;;;;;;38.00;18.47;;;;;;;;;;5065850;28;20263;-28
2022/12/19 12:19:12;;;;;;;48.07;19.93;;;;;;;;;;5074279;28;20217;-23
2022/12/19 12:21:46;;;;;;;42.93;20.97;;;;;;;;;;5064089;28;20562;-29
2022/12/19 12:24:19;;;;;;;43.20;19.83;;;;;;;;;;5061634;28;20201;-30
2022/12/19 12:26:51;;;;;;;46.90;20.27;;;;;;;;;;5053674;28;20198;-28
2022/12/19 12:29:21;;;;;;;43.70;20.23;;;;;;;;;;5053451;28;20213;-28
2022/12/19 12:32:01;;;;;;;40.87;20.53;;;;;;;;;;5054219;28;20230;-31
2022/12/19 12:34:44;;;;;;;48.57;21.07;;;;;;;;;;5054010;28;20197;-28
2022/12/19 12:37:18;;;;;;;49.50;21.70;;;;;;;;;;5056209;28;20672;-28
2022/12/19 12:39:50;;;;;;;46.07;22.00;;;;;;;;;;5060283;28;20186;-25
2022/12/19 12:42:24;;;;;;;48.73;22.43;;;;;;;;;;5050997;28;20236;-26
2022/12/19 12:44:53;;;;;;;45.23;20.43;;;;;;;;;;5065956;28;20666;-32
2022/12/19 12:47:24;;;;;;;47.53;22.77;;;;;;;;;;5062692;28;20639;-27
2022/12/19 12:49:55;;;;;;;42.57;22.53;;;;;;;;;;5072753;28;20272;-25
2022/12/19 12:52:24;;;;;;;52.60;24.90;;;;;;;;;;5053996;28;20316;-29
2022/12/19 12:54:52;;;;;;;50.20;23.73;;;;;;;;;;5064516;28;20252;-30
2022/12/19 12:57:20;;;;;;;45.77;24.87;;;;;;;;;;5056152;28;20228;-27
2022/12/19 12:59:48;;;;;;;52.67;23.33;;;;;;;;;;5066279;28;20293;-31
2022/12/19 13:02:17;;;;;;;52.03;24.77;;;;;;;;;;5070019;28;20217;-27
2022/12/19 13:04:56;;;;;;;50.83;23.13;;;;;;;;;;5050399;28;20213;-26
2022/12/19 13:07:33;;;;;;;45.03;22.63;;;;;;;;;;5050909;28;20201;-28
2022/12/19 13:10:07;;;;;;;49.87;24.17;;;;;;;;;;5056727;28;20197;-27
2022/12/19 13:15:46;;;;;;;44.33;22.17;;;;;;;;;;5057043;28;20550;-30
2022/12/19 13:18:31;;;;;;;49.90;22.27;;;;;;;;;;5071217;28;20205;-28
2022/12/19 13:21:00;;;;;;;44.93;21.53;;;;;;;;;;5061427;28;20299;-27
2022/12/19 13:23:35;;;;;;;43.80;21.40;;;;;;;;;;5063687;28;20288;-32
2022/12/19 13:26:02;;;;;;;45.87;20.87;;;;;;;;;;5066204;28;20185;-32
2022/12/19 13:28:40;;;;;;;45.77;22.37;;;;;;;;;;5063845;28;20240;-27
2022/12/19 13:31:20;;;;;;;43.03;21.47;;;;;;;;;;5066105;28;20237;-26
2022/12/19 13:33:48;;;;;;;46.47;22.03;;;;;;;;;;5071872;28;20662;-28
2022/12/19 13:36:33;;;;;;;47.90;22.00;;;;;;;;;;5063654;28;20225;-29
2022/12/19 13:39:02;;;;;;;47.13;22.37;;;;;;;;;;5052055;28;20206;-29
2022/12/19 13:44:18;;;;;;;50.77;25.37;;;;;;;;;;5059827;28;20208;-29
2022/12/19 13:46:46;;;;;;;49.67;23.00;;;;;;;;;;5054935;28;20197;-28
2022/12/19 13:49:15;;;;;;;45.87;22.20;;;;;;;;;;5070643;28;20205;-28
2022/12/19 13:51:45;;;;;;;45.20;22.50;;;;;;;;;;5056907;28;20220;-28
2022/12/19 13:54:22;;;;;;;53.80;23.63;;;;;;;;;;5067154;28;20205;-24
2022/12/19 13:56:49;;;;;;;46.73;22.73;;;;;;;;;;5053509;28;20209;-28
2022/12/19 13:59:17;;;;;;;48.30;22.83;;;;;;;;;;5058653;28;20197;-32
2022/12/19 14:01:45;;;;;;;49.33;22.87;;;;;;;;;;5052396;28;20226;-30
2022/12/19 14:04:14;;;;;;;46.17;22.27;;;;;;;;;;5054751;28;20448;-31
2022/12/19 14:06:43;;;;;;;46.67;21.63;;;;;;;;;;5052224;28;20205;-28
2022/12/19 14:09:20;;;;;;;50.47;23.43;;;;;;;;;;5068242;28;20208;-29
2022/12/19 14:11:50;;;;;;;47.03;21.67;;;;;;;;;;5069638;28;20244;-29
2022/12/19 14:17:07;;;;;;;53.50;24.17;;;;;;;;;;5059761;28;20998;-28
2022/12/19 14:19:39;;;;;;;47.73;24.27;;;;;;;;;;5062019;28;20315;-31
2022/12/19 14:22:12;;;;;;;56.70;24.73;;;;;;;;;;5057847;28;20219;-28
2022/12/19 14:24:40;;;;;;;49.87;23.03;;;;;;;;;;5071302;28;20573;-30
2022/12/19 14:27:11;;;;;;;48.87;22.77;;;;;;;;;;5060086;28;20205;-29
2022/12/19 14:29:41;;;;;;;53.17;27.20;;;;;;;;;;5058703;28;20206;-32
2022/12/19 14:32:09;;;;;;;56.30;25.73;;;;;;;;;;5053971;28;20225;-29
2022/12/19 14:34:36;;;;;;;45.60;20.80;;;;;;;;;;5072149;28;20236;-25
2022/12/19 14:37:03;;;;;;;41.83;21.20;;;;;;;;;;5067024;28;20228;-30
2022/12/19 14:39:32;;;;;;;49.83;24.53;;;;;;;;;;5069862;28;20201;-28
2022/12/19 14:44:50;;;;;;;43.73;20.60;;;;;;;;;;5054679;28;20212;-27
2022/12/19 14:47:22;;;;;;;45.27;21.50;;;;;;;;;;5052527;28;20194;-27
2022/12/19 14:49:49;;;;;;;43.33;20.37;;;;;;;;;;5052529;28;20252;-30